Time;durP1;ratioP1;P1;durP2;ratioP2;P2;SDS_P1;SDS_P2;PMS_P1;PMS_P2;Temp;Humidity;BMP_temperature;BMP_pressure;BME280_temperature;BME280_humidity;BME280_pressure;Samples;Min_cycle;Max_cycle;Signal;HPM_P1;HPM_P2
2021/12/06 00:02:05;;;;;;;10.10;7.63;;;1.80;99.90;;;;;;5034430;28;20811;-77
2021/12/06 00:04:36;;;;;;;10.13;7.40;;;1.80;99.90;;;;;;5034305;28;20194;-77
2021/12/06 00:07:08;;;;;;;10.97;7.27;;;1.80;99.90;;;;;;5034498;28;20180;-77
2021/12/06 00:09:34;;;;;;;8.73;7.20;;;1.90;99.90;;;;;;5033802;28;20176;-76
2021/12/06 00:12:01;;;;;;;8.97;7.47;;;1.90;99.90;;;;;;5034608;28;20183;-79
2021/12/06 00:14:30;;;;;;;8.73;7.07;;;1.90;99.90;;;;;;5034677;28;20629;-77
2021/12/06 00:17:01;;;;;;;7.97;6.93;;;1.90;99.90;;;;;;5034265;28;20183;-77
2021/12/06 00:19:28;;;;;;;7.80;6.90;;;1.80;99.90;;;;;;5033579;28;20180;-76
2021/12/06 00:21:54;;;;;;;9.57;7.23;;;1.80;99.90;;;;;;5034043;28;20672;-76
2021/12/06 00:24:20;;;;;;;10.80;7.57;;;1.80;99.90;;;;;;5034367;28;20179;-76
2021/12/06 00:26:46;;;;;;;9.27;7.10;;;2.00;99.90;;;;;;5034432;28;20168;-76
2021/12/06 00:29:11;;;;;;;8.27;7.00;;;1.80;99.90;;;;;;5033798;28;20183;-77
2021/12/06 00:31:38;;;;;;;8.23;6.77;;;1.90;99.90;;;;;;5036257;28;20238;-79
2021/12/06 00:34:09;;;;;;;8.53;7.63;;;1.90;99.90;;;;;;5037034;28;20223;-79
2021/12/06 00:36:38;;;;;;;8.70;7.13;;;1.90;99.90;;;;;;5034812;28;20221;-77
2021/12/06 00:39:07;;;;;;;9.13;7.13;;;1.90;99.90;;;;;;5035500;28;20176;-77
2021/12/06 00:41:33;;;;;;;9.37;7.43;;;1.90;99.90;;;;;;5034469;28;20191;-79
2021/12/06 00:44:00;;;;;;;8.87;6.90;;;1.80;99.90;;;;;;5035316;28;20190;-79
2021/12/06 00:46:27;;;;;;;8.70;7.23;;;1.80;99.90;;;;;;5038154;28;20172;-78
2021/12/06 00:48:52;;;;;;;11.53;7.23;;;1.90;99.90;;;;;;5036504;28;20176;-78
2021/12/06 00:51:19;;;;;;;9.17;7.13;;;1.90;99.90;;;;;;5036675;28;20211;-78
2021/12/06 00:53:45;;;;;;;11.03;7.80;;;1.90;99.90;;;;;;5038663;28;20176;-78
2021/12/06 00:56:11;;;;;;;11.23;8.10;;;1.90;99.90;;;;;;5039772;28;20387;-78
2021/12/06 00:58:37;;;;;;;11.83;8.60;;;1.90;99.90;;;;;;5042765;28;20172;-79
2021/12/06 01:01:04;;;;;;;11.70;7.97;;;2.00;99.90;;;;;;5040961;28;20226;-77
2021/12/06 01:03:32;;;;;;;11.83;8.47;;;1.90;99.90;;;;;;5035195;28;20212;-78
2021/12/06 01:05:58;;;;;;;10.63;7.80;;;2.00;99.90;;;;;;5034985;28;20176;-78
2021/12/06 01:08:25;;;;;;;8.67;7.03;;;2.00;99.90;;;;;;5035543;28;20183;-78
2021/12/06 01:10:52;;;;;;;9.90;8.17;;;1.90;99.90;;;;;;5035637;28;20330;-78
2021/12/06 01:13:18;;;;;;;9.97;7.13;;;1.80;99.90;;;;;;5037495;28;20176;-78
2021/12/06 01:15:44;;;;;;;9.80;7.17;;;1.90;99.90;;;;;;5036209;28;20263;-77
2021/12/06 01:18:13;;;;;;;11.17;8.63;;;1.90;99.90;;;;;;5033035;28;20277;-77
2021/12/06 01:20:48;;;;;;;8.97;7.70;;;1.90;99.90;;;;;;5040372;28;20196;-84
2021/12/06 01:23:16;;;;;;;8.67;7.57;;;2.00;99.90;;;;;;5043471;28;20211;-78
2021/12/06 01:31:05;;;;;;;13.07;8.20;;;1.90;99.90;;;;;;5041831;28;20255;-78
2021/12/06 01:39:12;;;;;;;9.60;7.87;;;1.80;99.90;;;;;;5034196;28;20193;-77
2021/12/06 01:41:58;;;;;;;9.40;7.70;;;1.70;99.90;;;;;;5033093;28;20212;-77
2021/12/06 01:44:34;;;;;;;9.90;8.33;;;1.70;99.90;;;;;;5032773;28;20179;-77
2021/12/06 01:47:02;;;;;;;10.47;8.90;;;1.80;99.90;;;;;;5038042;28;20551;-78
2021/12/06 01:49:32;;;;;;;13.17;9.00;;;1.80;99.90;;;;;;5039678;28;20196;-78
2021/12/06 01:52:07;;;;;;;13.10;8.83;;;1.80;99.90;;;;;;5039583;28;20183;-79
2021/12/06 01:54:32;;;;;;;10.37;8.67;;;1.80;99.90;;;;;;5039462;28;20178;-79
2021/12/06 01:56:58;;;;;;;11.03;8.63;;;1.90;99.90;;;;;;5040737;28;20171;-79
2021/12/06 01:59:25;;;;;;;11.40;8.13;;;1.90;99.90;;;;;;5034034;28;20690;-78
2021/12/06 02:01:52;;;;;;;10.50;8.07;;;1.80;99.90;;;;;;5033795;28;20261;-79
2021/12/06 02:04:18;;;;;;;8.47;7.00;;;1.70;99.90;;;;;;5034808;28;20211;-78
2021/12/06 02:06:45;;;;;;;9.97;7.63;;;1.70;99.90;;;;;;5033943;28;20179;-78
2021/12/06 02:09:13;;;;;;;9.37;7.63;;;1.70;99.90;;;;;;5034930;28;20198;-79
2021/12/06 02:11:41;;;;;;;9.60;7.40;;;1.80;99.90;;;;;;5033196;28;20203;-78
2021/12/06 02:14:29;;;;;;;9.00;7.47;;;1.70;99.90;;;;;;5033741;28;20183;-80
2021/12/06 02:17:17;;;;;;;8.73;7.83;;;1.70;99.90;;;;;;5033701;28;20678;-77
2021/12/06 02:19:49;;;;;;;9.50;7.43;;;1.70;99.90;;;;;;5032319;28;20214;-77
2021/12/06 02:22:19;;;;;;;10.93;7.17;;;1.80;99.90;;;;;;5032309;28;20287;-77
2021/12/06 02:24:45;;;;;;;8.67;7.37;;;1.70;99.90;;;;;;5032316;28;20609;-76
2021/12/06 02:27:13;;;;;;;9.87;7.53;;;1.60;99.90;;;;;;5031629;28;20175;-77
2021/12/06 02:29:40;;;;;;;9.67;7.43;;;1.70;99.90;;;;;;5032010;28;20200;-76
2021/12/06 02:32:10;;;;;;;10.23;7.63;;;1.60;99.90;;;;;;5033441;28;20168;-78
2021/12/06 02:34:38;;;;;;;8.57;7.57;;;1.70;99.90;;;;;;5032290;28;20672;-77
2021/12/06 02:37:04;;;;;;;9.50;8.00;;;1.70;99.90;;;;;;5032081;28;20179;-78
2021/12/06 02:39:30;;;;;;;12.20;7.57;;;1.90;99.90;;;;;;5031772;28;20187;-77
2021/12/06 02:41:59;;;;;;;12.73;8.90;;;1.70;99.90;;;;;;5031919;28;20221;-77
2021/12/06 02:44:25;;;;;;;10.00;7.93;;;1.70;99.90;;;;;;5032358;28;20199;-77
2021/12/06 02:46:51;;;;;;;11.03;8.60;;;1.70;99.90;;;;;;5031937;28;20532;-77
2021/12/06 02:49:16;;;;;;;12.87;8.30;;;1.70;99.90;;;;;;5031749;28;20516;-78
2021/12/06 02:51:42;;;;;;;10.43;7.73;;;1.80;99.90;;;;;;5032787;28;20199;-78
2021/12/06 02:54:09;;;;;;;9.57;7.70;;;1.80;99.90;;;;;;5032888;28;20242;-77
2021/12/06 02:56:54;;;;;;;9.10;7.30;;;1.60;99.90;;;;;;5032488;28;20226;-77
2021/12/06 02:59:24;;;;;;;8.83;7.70;;;1.70;99.90;;;;;;5032652;28;20175;-77
2021/12/06 03:01:58;;;;;;;11.23;7.57;;;1.60;99.90;;;;;;5032908;28;20215;-77
2021/12/06 03:04:24;;;;;;;11.43;8.17;;;1.60;99.90;;;;;;5032739;28;20603;-78
2021/12/06 03:06:54;;;;;;;13.67;8.20;;;1.60;99.90;;;;;;5032084;28;20183;-78
2021/12/06 03:09:24;;;;;;;11.93;8.40;;;1.70;99.90;;;;;;5031963;28;20187;-83
2021/12/06 03:11:54;;;;;;;9.93;8.27;;;1.70;99.90;;;;;;5032570;28;20637;-78
2021/12/06 03:14:24;;;;;;;11.73;7.73;;;1.70;99.90;;;;;;5031986;28;20846;-78
2021/12/06 03:16:51;;;;;;;8.93;7.50;;;1.70;99.90;;;;;;5032208;28;20187;-78
2021/12/06 03:19:17;;;;;;;8.50;7.60;;;1.80;99.90;;;;;;5031353;28;20311;-77
2021/12/06 03:21:43;;;;;;;9.57;8.13;;;1.60;99.90;;;;;;5032166;28;20632;-78
2021/12/06 03:24:09;;;;;;;10.43;8.07;;;1.50;99.90;;;;;;5037051;28;20195;-78
2021/12/06 03:26:36;;;;;;;9.77;7.87;;;1.60;99.90;;;;;;5037288;28;20177;-78
2021/12/06 03:29:03;;;;;;;10.17;8.83;;;1.70;99.90;;;;;;5037969;28;20623;-77
2021/12/06 03:31:29;;;;;;;10.07;8.97;;;1.70;99.90;;;;;;5038166;28;20192;-77
2021/12/06 03:33:56;;;;;;;11.13;7.73;;;1.80;99.90;;;;;;5038931;28;20299;-77
2021/12/06 03:36:23;;;;;;;10.93;7.60;;;1.80;99.90;;;;;;5037946;28;20176;-77
2021/12/06 03:38:51;;;;;;;12.70;8.70;;;1.70;99.90;;;;;;5037516;28;20191;-77
2021/12/06 03:41:18;;;;;;;11.50;8.97;;;1.70;99.90;;;;;;5042207;28;20218;-78
2021/12/06 03:43:44;;;;;;;10.97;8.70;;;1.80;99.90;;;;;;5038322;28;20215;-78
2021/12/06 03:46:13;;;;;;;10.43;8.47;;;1.70;99.90;;;;;;5043270;28;20277;-77
2021/12/06 03:48:38;;;;;;;11.33;8.97;;;1.80;99.90;;;;;;5043505;28;20172;-78
2021/12/06 03:51:05;;;;;;;9.70;8.33;;;1.80;99.90;;;;;;5044630;28;20230;-78
2021/12/06 03:53:30;;;;;;;9.83;8.07;;;1.80;99.90;;;;;;5044812;28;20240;-77
2021/12/06 03:55:56;;;;;;;11.50;8.90;;;1.80;99.90;;;;;;5045639;28;20176;-77
2021/12/06 03:58:23;;;;;;;12.20;8.40;;;1.80;99.90;;;;;;5038947;28;20168;-78
2021/12/06 04:00:48;;;;;;;10.87;7.97;;;1.80;99.90;;;;;;5040905;28;20265;-77
2021/12/06 04:03:16;;;;;;;11.17;8.40;;;1.90;99.90;;;;;;5042156;28;20239;-79
2021/12/06 04:05:42;;;;;;;9.30;8.30;;;1.90;99.90;;;;;;5038775;28;20202;-77
2021/12/06 04:08:07;;;;;;;11.83;8.23;;;2.00;99.90;;;;;;5036709;28;20180;-77
2021/12/06 04:10:33;;;;;;;9.57;8.03;;;2.00;99.90;;;;;;5038993;28;20215;-78
2021/12/06 04:12:59;;;;;;;10.67;8.37;;;2.00;99.90;;;;;;5041419;28;20214;-78
2021/12/06 04:15:28;;;;;;;8.17;7.17;;;2.10;99.90;;;;;;5048754;28;20655;-80
2021/12/06 04:17:58;;;;;;;10.07;8.07;;;2.10;99.90;;;;;;5050394;28;20186;-79
2021/12/06 04:20:23;;;;;;;8.60;7.50;;;1.90;99.90;;;;;;5048923;28;20195;-80
2021/12/06 04:22:49;;;;;;;9.43;7.53;;;1.90;99.90;;;;;;5048504;28;20288;-79
2021/12/06 04:25:17;;;;;;;10.90;6.90;;;1.90;99.90;;;;;;5049057;28;20178;-79
2021/12/06 04:27:43;;;;;;;9.87;8.23;;;2.10;99.90;;;;;;5046190;28;20211;-79
2021/12/06 04:30:11;;;;;;;9.57;7.47;;;2.00;99.90;;;;;;5047355;28;20200;-79
2021/12/06 04:32:37;;;;;;;10.90;7.80;;;2.00;99.90;;;;;;5050959;28;20198;-79
2021/12/06 04:35:09;;;;;;;11.17;8.10;;;1.90;99.90;;;;;;5050706;28;20198;-78
2021/12/06 04:37:35;;;;;;;8.77;7.03;;;1.90;99.90;;;;;;5055707;28;20202;-80
2021/12/06 04:40:03;;;;;;;9.97;8.20;;;1.90;99.90;;;;;;5052051;28;20211;-78
2021/12/06 04:42:28;;;;;;;9.33;8.03;;;2.00;99.90;;;;;;5049174;28;20230;-79
2021/12/06 04:44:54;;;;;;;8.63;7.73;;;2.00;99.90;;;;;;5046503;28;20240;-80
2021/12/06 04:47:19;;;;;;;11.33;9.20;;;1.90;99.90;;;;;;5036502;28;20678;-80
2021/12/06 04:49:45;;;;;;;9.60;8.33;;;2.00;99.90;;;;;;5037943;28;20912;-80
2021/12/06 04:52:12;;;;;;;9.50;8.50;;;2.00;99.90;;;;;;5038032;28;20226;-80
2021/12/06 04:54:41;;;;;;;9.77;8.30;;;2.10;99.90;;;;;;5036387;28;20559;-81
2021/12/06 04:57:13;;;;;;;11.47;8.67;;;2.10;99.90;;;;;;5035771;28;20233;-80
2021/12/06 04:59:43;;;;;;;10.10;8.67;;;2.10;99.90;;;;;;5034601;28;20200;-80
2021/12/06 05:02:14;;;;;;;11.60;8.13;;;2.00;99.90;;;;;;5035312;28;20211;-80
2021/12/06 05:04:47;;;;;;;12.50;8.90;;;2.00;99.90;;;;;;5035620;28;20199;-80
2021/12/06 05:07:24;;;;;;;11.77;8.00;;;2.10;99.90;;;;;;5045053;28;20258;-78
2021/12/06 05:09:51;;;;;;;9.83;8.27;;;2.10;99.90;;;;;;5035022;28;20204;-79
2021/12/06 05:12:19;;;;;;;10.63;9.40;;;2.20;99.90;;;;;;5043068;28;20179;-80
2021/12/06 05:14:45;;;;;;;17.33;9.50;;;2.10;99.90;;;;;;5040165;28;20176;-80
2021/12/06 05:17:11;;;;;;;11.47;10.27;;;2.10;99.90;;;;;;5040325;28;20184;-81
2021/12/06 05:19:37;;;;;;;13.83;10.93;;;2.10;99.90;;;;;;5035729;28;20198;-81
2021/12/06 05:22:04;;;;;;;14.97;12.43;;;2.10;99.90;;;;;;5035541;28;20257;-81
2021/12/06 05:24:31;;;;;;;18.80;15.77;;;2.20;99.90;;;;;;5036638;28;20675;-81
2021/12/06 05:26:58;;;;;;;24.77;16.87;;;2.30;99.90;;;;;;5035545;28;20172;-80
2021/12/06 05:29:27;;;;;;;21.87;17.57;;;2.40;99.90;;;;;;5034603;28;20180;-82
2021/12/06 05:31:56;;;;;;;20.53;17.20;;;2.40;99.90;;;;;;5035513;28;20178;-81
2021/12/06 05:34:32;;;;;;;22.43;18.17;;;2.40;99.90;;;;;;5063379;22;20235;-78
2021/12/06 05:36:58;;;;;;;22.43;17.70;;;2.40;99.90;;;;;;5015566;28;20203;-76
2021/12/06 05:39:30;;;;;;;20.50;17.80;;;2.50;99.90;;;;;;5015106;28;20239;-77
2021/12/06 05:42:06;;;;;;;22.47;18.33;;;2.60;99.90;;;;;;5021736;28;20219;-78
2021/12/06 05:44:32;;;;;;;23.27;17.27;;;2.60;99.90;;;;;;5022092;28;20181;-77
2021/12/06 05:46:58;;;;;;;23.60;19.03;;;2.50;99.90;;;;;;5019813;28;20236;-78
2021/12/06 05:49:25;;;;;;;24.97;20.03;;;2.60;99.90;;;;;;5014358;28;20208;-77
2021/12/06 05:51:51;;;;;;;25.33;19.63;;;3.30;99.90;;;;;;5012856;28;20228;-77
2021/12/06 05:54:17;;;;;;;25.20;19.13;;;2.60;99.90;;;;;;5012572;28;20685;-76
2021/12/06 05:56:44;;;;;;;23.87;18.77;;;2.60;99.90;;;;;;5012730;28;20196;-76
2021/12/06 05:59:10;;;;;;;25.67;19.47;;;2.60;99.90;;;;;;5012287;28;20282;-77
2021/12/06 06:01:35;;;;;;;25.17;17.73;;;2.60;99.90;;;;;;5011953;28;20240;-77
2021/12/06 06:04:01;;;;;;;21.07;17.40;;;2.60;99.90;;;;;;5012367;28;20219;-76
2021/12/06 06:06:32;;;;;;;21.87;17.50;;;2.60;99.90;;;;;;5012654;28;20173;-76
2021/12/06 06:08:58;;;;;;;23.23;17.87;;;2.70;99.90;;;;;;5012679;28;20219;-77
2021/12/06 06:11:25;;;;;;;22.77;17.77;;;2.60;99.90;;;;;;5011783;28;20689;-77
2021/12/06 06:13:50;;;;;;;22.00;18.13;;;2.60;99.90;;;;;;5028442;28;20200;-78
2021/12/06 06:16:20;;;;;;;24.30;18.50;;;2.60;99.90;;;;;;5028640;28;20211;-77
2021/12/06 06:18:47;;;;;;;21.90;18.00;;;2.60;99.90;;;;;;5016737;28;20251;-76
2021/12/06 06:21:15;;;;;;;24.03;17.90;;;2.60;99.90;;;;;;5011812;28;20200;-76
2021/12/06 06:23:40;;;;;;;22.03;17.67;;;2.60;99.90;;;;;;5012204;28;20220;-76
2021/12/06 06:26:06;;;;;;;24.87;18.40;;;2.60;99.90;;;;;;5012095;28;20598;-77
2021/12/06 06:28:31;;;;;;;24.63;19.00;;;2.70;99.90;;;;;;5012121;28;20204;-76
2021/12/06 06:30:57;;;;;;;28.47;19.87;;;2.70;99.90;;;;;;5011493;28;20628;-76
2021/12/06 06:33:23;;;;;;;27.27;20.07;;;2.70;99.90;;;;;;5011654;28;20219;-75
2021/12/06 06:35:48;;;;;;;27.33;20.03;;;2.70;99.90;;;;;;5012024;28;20260;-75
2021/12/06 06:38:14;;;;;;;26.53;19.67;;;2.70;99.90;;;;;;5011965;28;20235;-76
2021/12/06 06:40:40;;;;;;;26.50;19.73;;;2.80;99.90;;;;;;5011432;28;20196;-76
2021/12/06 06:43:06;;;;;;;28.13;20.20;;;2.80;99.90;;;;;;5011833;28;20213;-76
2021/12/06 06:45:32;;;;;;;30.93;21.83;;;2.80;99.90;;;;;;5011820;28;20192;-76
2021/12/06 06:47:57;;;;;;;33.20;23.03;;;2.90;99.90;;;;;;5011680;28;20187;-76
2021/12/06 06:50:24;;;;;;;32.70;22.63;;;2.90;99.90;;;;;;5011396;28;20192;-76
2021/12/06 06:52:50;;;;;;;35.47;23.87;;;2.90;99.90;;;;;;5011506;28;20634;-73
2021/12/06 06:55:16;;;;;;;34.27;22.87;;;3.00;99.90;;;;;;5011482;28;20180;-72
2021/12/06 06:57:44;;;;;;;35.00;23.20;;;3.00;99.90;;;;;;5011661;28;20177;-72
2021/12/06 07:00:13;;;;;;;34.90;22.97;;;3.10;99.90;;;;;;5014994;28;20192;-72
2021/12/06 07:02:40;;;;;;;35.07;23.40;;;3.10;99.90;;;;;;5015560;28;20234;-73
2021/12/06 07:05:07;;;;;;;32.47;22.30;;;3.10;99.90;;;;;;5015711;28;20173;-72
2021/12/06 07:07:33;;;;;;;33.30;21.53;;;3.00;99.90;;;;;;5015198;28;20366;-75
2021/12/06 07:09:58;;;;;;;31.87;22.27;;;3.10;99.90;;;;;;5014788;28;20342;-74
2021/12/06 07:12:24;;;;;;;30.00;21.63;;;3.00;99.90;;;;;;5014914;28;20169;-75
2021/12/06 07:14:50;;;;;;;30.20;21.50;;;3.00;99.90;;;;;;5015129;28;20183;-75
2021/12/06 07:17:16;;;;;;;32.63;22.17;;;3.00;99.90;;;;;;5015237;28;20172;-76
2021/12/06 07:19:43;;;;;;;32.03;22.20;;;3.10;99.90;;;;;;5014949;28;20192;-75
2021/12/06 07:22:09;;;;;;;29.83;20.77;;;3.10;99.90;;;;;;5015289;28;20266;-76
2021/12/06 07:24:35;;;;;;;28.63;21.53;;;3.10;99.90;;;;;;5015392;28;20172;-76
2021/12/06 07:27:01;;;;;;;32.33;22.77;;;3.10;99.90;;;;;;5015251;28;20188;-76
2021/12/06 07:29:26;;;;;;;27.90;21.03;;;3.00;99.90;;;;;;5014576;28;20222;-76
2021/12/06 07:31:53;;;;;;;30.87;21.80;;;2.90;99.90;;;;;;5015089;28;20262;-75
2021/12/06 07:34:19;;;;;;;29.37;21.10;;;3.00;99.90;;;;;;5014459;28;20200;-75
2021/12/06 07:36:44;;;;;;;29.73;20.50;;;3.00;99.90;;;;;;5006048;28;20173;-76
2021/12/06 07:39:10;;;;;;;28.23;21.27;;;2.90;99.90;;;;;;5012860;28;20188;-77
2021/12/06 07:41:37;;;;;;;27.43;19.60;;;2.90;99.90;;;;;;5016201;28;20202;-75
2021/12/06 07:44:04;;;;;;;26.17;17.97;;;2.90;99.90;;;;;;5014425;28;20189;-76
2021/12/06 07:46:30;;;;;;;27.37;19.13;;;2.90;99.90;;;;;;5014980;28;20263;-74
2021/12/06 07:48:56;;;;;;;27.20;20.00;;;2.90;99.90;;;;;;5015025;28;20593;-75
2021/12/06 07:51:24;;;;;;;29.83;21.60;;;2.80;99.90;;;;;;5014533;28;20200;-76
2021/12/06 07:53:51;;;;;;;28.17;20.80;;;3.00;99.90;;;;;;5015030;28;20180;-76
2021/12/06 07:56:16;;;;;;;27.27;19.50;;;3.00;99.90;;;;;;5014809;28;20180;-76
2021/12/06 07:58:42;;;;;;;23.90;18.37;;;2.80;99.90;;;;;;5014684;28;20176;-75
2021/12/06 08:01:09;;;;;;;26.83;19.33;;;2.90;99.90;;;;;;5014244;28;20192;-76
2021/12/06 08:03:36;;;;;;;30.80;22.47;;;3.00;99.90;;;;;;5014395;28;21044;-76
2021/12/06 08:06:02;;;;;;;28.20;20.70;;;3.00;99.90;;;;;;5014983;28;20191;-75
2021/12/06 08:08:30;;;;;;;25.40;19.40;;;3.00;99.90;;;;;;5014526;28;20181;-76
2021/12/06 08:10:59;;;;;;;26.80;20.17;;;3.00;99.90;;;;;;5013237;28;20204;-75
2021/12/06 08:13:30;;;;;;;23.03;17.63;;;2.90;99.90;;;;;;5013736;28;20176;-76
2021/12/06 08:15:59;;;;;;;25.53;19.30;;;3.10;99.90;;;;;;5013098;28;20525;-76
2021/12/06 08:18:25;;;;;;;25.67;18.23;;;3.10;99.90;;;;;;5013943;28;20205;-77
2021/12/06 08:20:51;;;;;;;25.63;18.63;;;3.20;99.90;;;;;;5013727;28;20266;-76
2021/12/06 08:23:17;;;;;;;27.00;19.17;;;3.20;99.90;;;;;;5014186;28;20208;-75
2021/12/06 08:25:46;;;;;;;25.97;19.10;;;3.30;99.90;;;;;;5014396;28;20183;-76
2021/12/06 08:28:12;;;;;;;24.47;18.77;;;3.10;99.90;;;;;;5014416;28;20192;-75
2021/12/06 08:30:38;;;;;;;24.90;18.57;;;3.10;99.90;;;;;;5013900;28;20268;-76
2021/12/06 08:33:06;;;;;;;24.87;19.20;;;3.10;99.90;;;;;;5014965;28;20181;-78
2021/12/06 08:35:33;;;;;;;25.97;19.43;;;3.10;99.90;;;;;;5014420;28;20181;-76
2021/12/06 08:37:59;;;;;;;25.93;18.97;;;3.10;99.90;;;;;;5014252;28;20177;-75
2021/12/06 08:40:28;;;;;;;28.03;19.20;;;3.30;99.90;;;;;;5013869;28;20627;-76
2021/12/06 08:42:54;;;;;;;27.43;19.07;;;3.30;99.90;;;;;;5013892;28;20223;-76
2021/12/06 08:45:20;;;;;;;26.73;19.23;;;3.30;99.90;;;;;;5014111;28;20172;-75
2021/12/06 08:47:46;;;;;;;25.93;17.80;;;3.30;99.90;;;;;;5013954;28;20200;-76
2021/12/06 08:50:19;;;;;;;24.17;17.57;;;3.30;99.90;;;;;;5013866;28;20208;-76
2021/12/06 08:52:45;;;;;;;21.57;16.93;;;3.30;99.90;;;;;;5016810;28;20192;-74
2021/12/06 08:55:12;;;;;;;22.37;17.27;;;3.40;99.90;;;;;;5014218;28;20544;-76
2021/12/06 08:57:38;;;;;;;22.23;17.17;;;3.50;99.90;;;;;;5013975;28;20543;-76
2021/12/06 09:00:07;;;;;;;23.70;16.67;;;3.60;67.50;;;;;;5013270;28;20204;-76
2021/12/06 09:02:32;;;;;;;24.57;18.10;;;3.60;18.60;;;;;;5013577;28;20772;-75
2021/12/06 09:04:59;;;;;;;22.80;17.40;;;3.50;45.20;;;;;;5013968;28;20173;-77
2021/12/06 09:07:25;;;;;;;27.03;17.97;;;3.50;46.70;;;;;;5013311;28;20727;-76
2021/12/06 09:09:55;;;;;;;23.87;17.63;;;3.50;96.90;;;;;;5013227;28;20219;-76
2021/12/06 09:12:26;;;;;;;23.93;18.40;;;3.40;99.90;;;;;;5013736;28;20172;-76
2021/12/06 09:14:54;;;;;;;22.63;16.70;;;3.40;99.90;;;;;;5014309;28;20203;-76
2021/12/06 09:17:21;;;;;;;24.83;17.83;;;3.60;99.90;;;;;;5013243;28;20216;-76
2021/12/06 09:19:46;;;;;;;20.63;16.40;;;3.60;38.80;;;;;;5012749;28;20227;-76
2021/12/06 09:22:12;;;;;;;21.47;16.10;;;3.60;1.00;;;;;;5012049;28;20293;-76
2021/12/06 09:24:38;;;;;;;25.97;15.57;;;3.60;1.00;;;;;;5013356;28;20234;-77
2021/12/06 09:27:04;;;;;;;21.30;16.37;;;3.70;1.00;;;;;;5013357;28;20251;-77
2021/12/06 09:29:32;;;;;;;23.07;16.93;;;3.80;1.00;;;;;;5012724;28;20506;-77
2021/12/06 09:31:59;;;;;;;24.90;16.53;;;3.60;1.00;;;;;;5013376;28;20258;-76
2021/12/06 09:34:27;;;;;;;21.63;16.63;;;3.70;1.00;;;;;;5012755;28;20227;-76
2021/12/06 09:36:54;;;;;;;19.87;15.47;;;3.80;1.00;;;;;;5013030;28;20219;-76
2021/12/06 09:39:20;;;;;;;20.77;15.77;;;3.70;1.00;;;;;;5011785;28;20561;-76
2021/12/06 09:41:46;;;;;;;21.47;15.70;;;3.80;1.00;;;;;;5012862;28;20691;-76
2021/12/06 09:44:13;;;;;;;21.50;16.03;;;3.80;1.00;;;;;;5013209;28;20212;-76
2021/12/06 09:46:40;;;;;;;22.50;15.83;;;3.80;1.00;;;;;;5013687;28;20180;-76
2021/12/06 09:49:09;;;;;;;20.90;15.30;;;3.80;1.00;;;;;;5015194;28;20219;-76
2021/12/06 09:51:37;;;;;;;19.53;14.57;;;3.90;1.00;;;;;;5013952;28;20280;-76
2021/12/06 09:54:03;;;;;;;19.53;15.23;;;4.10;1.00;;;;;;5014408;28;20196;-77
2021/12/06 09:56:37;;;;;;;19.70;14.90;;;4.00;1.00;;;;;;5013592;28;20177;-77
2021/12/06 09:59:06;;;;;;;30.43;16.20;;;4.00;1.00;;;;;;5012844;28;20173;-77
2021/12/06 10:01:37;;;;;;;22.33;15.20;;;4.00;1.00;;;;;;5012212;28;20207;-77
2021/12/06 10:04:07;;;;;;;19.13;14.83;;;3.90;1.00;;;;;;5012878;28;20208;-77
2021/12/06 10:06:32;;;;;;;20.47;14.27;;;3.90;1.00;;;;;;5012526;28;20645;-77
2021/12/06 10:08:59;;;;;;;18.57;14.17;;;4.00;1.00;;;;;;5012470;28;20191;-77
2021/12/06 10:11:26;;;;;;;17.90;13.13;;;4.20;1.00;;;;;;5011991;28;20283;-76
2021/12/06 10:13:55;;;;;;;17.47;13.63;;;4.30;1.00;;;;;;5012363;28;20168;-77
2021/12/06 10:16:22;;;;;;;19.37;13.33;;;4.40;1.00;;;;;;5012241;28;20184;-75
2021/12/06 10:18:49;;;;;;;18.17;12.43;;;4.40;1.00;;;;;;5012298;28;20173;-75
2021/12/06 10:21:15;;;;;;;15.53;12.43;;;4.30;1.00;;;;;;5011570;28;20292;-75
2021/12/06 10:23:42;;;;;;;16.90;12.30;;;4.30;1.00;;;;;;5011951;28;20212;-75
2021/12/06 10:26:11;;;;;;;15.47;11.90;;;4.40;1.00;;;;;;5011996;28;20176;-75
2021/12/06 10:28:39;;;;;;;17.33;11.93;;;4.50;1.00;;;;;;5013802;28;20209;-75
2021/12/06 10:31:07;;;;;;;13.93;11.70;;;4.30;1.00;;;;;;5011781;28;20196;-76
2021/12/06 10:33:36;;;;;;;19.57;12.93;;;4.20;1.00;;;;;;5011426;28;20199;-75
2021/12/06 10:36:07;;;;;;;20.60;15.20;;;4.90;1.00;;;;;;5011838;28;20837;-78
2021/12/06 10:38:36;;;;;;;17.63;13.37;;;5.20;1.00;;;;;;5013404;28;20181;-77
2021/12/06 10:41:08;;;;;;;12.30;10.30;;;5.50;1.00;;;;;;5013134;28;20254;-76
2021/12/06 10:43:36;;;;;;;10.87;9.43;;;5.70;1.00;;;;;;5011995;28;20323;-76
2021/12/06 10:46:04;;;;;;;13.67;9.37;;;5.50;99.90;;;;;;5011928;28;20173;-75
2021/12/06 10:48:37;;;;;;;11.87;8.83;;;5.60;1.00;;;;;;5011847;28;20200;-76
2021/12/06 10:51:13;;;;;;;9.80;8.07;;;5.40;99.90;;;;;;5010953;28;20195;-75
2021/12/06 10:53:46;;;;;;;10.10;8.07;;;5.30;1.00;;;;;;5013072;28;20188;-76
2021/12/06 10:56:21;;;;;;;11.23;8.63;;;5.20;1.00;;;;;;5014937;28;20238;-75
2021/12/06 10:58:49;;;;;;;33.97;20.80;;;5.10;1.00;;;;;;5012794;28;20698;-76
2021/12/06 11:01:18;;;;;;;13.90;9.50;;;5.10;1.00;;;;;;5011523;28;20200;-76
2021/12/06 11:03:47;;;;;;;12.73;9.07;;;4.90;1.00;;;;;;5011749;28;20216;-76
2021/12/06 11:06:20;;;;;;;13.00;9.53;;;4.90;1.00;;;;;;5011583;28;20180;-76
2021/12/06 11:08:49;;;;;;;12.97;10.47;;;4.90;1.00;;;;;;5011962;28;20540;-76
2021/12/06 11:11:20;;;;;;;11.47;9.87;;;4.70;1.00;;;;;;5011412;28;20288;-76
2021/12/06 11:14:13;;;;;;;13.67;10.20;;;4.70;99.90;;;;;;5011307;28;20195;-76
2021/12/06 11:16:44;;;;;;;16.40;10.87;;;4.60;99.90;;;;;;4995592;28;20641;-75
2021/12/06 11:19:12;;;;;;;15.63;10.67;;;4.50;99.90;;;;;;5008502;28;20271;-75
2021/12/06 11:21:45;;;;;;;14.03;10.87;;;4.60;99.90;;;;;;5008929;28;20668;-75
2021/12/06 11:24:20;;;;;;;13.40;10.40;;;4.50;99.90;;;;;;5008285;28;20296;-76
2021/12/06 11:26:54;;;;;;;13.17;10.53;;;4.40;99.90;;;;;;5008341;28;20817;-75
2021/12/06 11:29:37;;;;;;;13.40;10.20;;;4.20;99.90;;;;;;5011763;28;20176;-77
2021/12/06 11:32:12;;;;;;;14.10;10.57;;;4.30;1.00;;;;;;5012177;28;20545;-77
2021/12/06 11:34:44;;;;;;;14.93;10.70;;;4.30;1.00;;;;;;5012166;28;20211;-78
2021/12/06 11:37:22;;;;;;;13.50;9.77;;;4.40;1.00;;;;;;5010335;28;20180;-75
2021/12/06 11:40:07;;;;;;;12.53;10.37;;;4.30;99.90;;;;;;5008046;28;20223;-77
2021/12/06 11:42:49;;;;;;;12.87;10.00;;;4.40;1.00;;;;;;5011093;28;20712;-76
2021/12/06 11:45:28;;;;;;;12.53;9.47;;;4.40;1.00;;;;;;5010446;28;20196;-75
2021/12/06 11:48:06;;;;;;;12.20;9.70;;;4.30;99.90;;;;;;5013625;28;20603;-77
2021/12/06 11:50:33;;;;;;;13.50;9.50;;;4.50;99.90;;;;;;4994643;28;20199;-76
2021/12/06 11:53:04;;;;;;;12.27;8.60;;;4.70;1.00;;;;;;4995163;28;20189;-76
2021/12/06 11:55:30;;;;;;;13.23;8.77;;;4.60;99.90;;;;;;4994983;28;20185;-75
2021/12/06 11:57:56;;;;;;;10.87;7.43;;;4.80;99.90;;;;;;4995159;28;20276;-76
2021/12/06 12:00:23;;;;;;;9.73;6.90;;;5.20;1.00;;;;;;4997909;28;20235;-75
2021/12/06 12:02:50;;;;;;;10.03;7.30;;;5.20;99.90;;;;;;4999870;28;20291;-75
2021/12/06 12:05:32;;;;;;;8.83;7.10;;;5.60;1.00;;;;;;5034274;28;20172;-75
2021/12/06 12:08:15;;;;;;;8.60;6.93;;;6.20;1.00;;;;;;5034176;28;20175;-75
2021/12/06 12:10:55;;;;;;;10.33;7.83;;;6.30;99.90;;;;;;5033689;28;20291;-76
2021/12/06 12:13:25;;;;;;;11.80;8.00;;;6.30;1.00;;;;;;5034134;28;20168;-76
2021/12/06 12:15:54;;;;;;;12.50;7.47;;;6.10;1.00;;;;;;5034480;28;20175;-78
2021/12/06 12:18:20;;;;;;;10.73;7.13;;;6.00;99.90;;;;;;5034425;28;20194;-77
2021/12/06 12:20:47;;;;;;;13.27;7.53;;;5.90;99.90;;;;;;5033390;28;20295;-76
2021/12/06 12:23:13;;;;;;;12.10;7.50;;;5.80;1.00;;;;;;5033930;28;20245;-76
2021/12/06 12:25:49;;;;;;;11.87;7.87;;;5.70;49.60;;;;;;5034457;28;20891;-75
2021/12/06 12:28:20;;;;;;;10.60;8.20;;;5.60;99.90;;;;;;5034081;28;20190;-76
2021/12/06 12:30:48;;;;;;;8.90;6.77;;;5.50;1.00;;;;;;5033309;28;20238;-76
2021/12/06 12:33:18;;;;;;;14.40;7.37;;;5.40;99.90;;;;;;5033900;28;20243;-75
2021/12/06 12:35:44;;;;;;;9.53;7.93;;;5.30;1.00;;;;;;5031232;28;20653;-76
2021/12/06 12:38:11;;;;;;;12.30;8.20;;;5.40;99.90;;;;;;5014227;28;20225;-78
2021/12/06 12:41:01;;;;;;;11.90;7.80;;;5.30;7.40;;;;;;5013452;28;20208;-77
2021/12/06 12:43:34;;;;;;;10.43;7.80;;;5.30;99.90;;;;;;5013981;28;20239;-76
2021/12/06 12:46:08;;;;;;;12.47;7.97;;;5.10;99.90;;;;;;5013953;28;20196;-76
2021/12/06 12:49:10;;;;;;;13.83;8.07;;;5.20;1.00;;;;;;5013844;28;20659;-76
2021/12/06 12:51:43;;;;;;;13.37;7.50;;;5.10;99.90;;;;;;4992054;28;20212;-76
2021/12/06 12:54:18;;;;;;;11.53;7.50;;;5.20;1.00;;;;;;5013861;28;20200;-76
2021/12/06 12:56:55;;;;;;;13.60;7.87;;;5.10;1.00;;;;;;5013514;28;20176;-76
2021/12/06 12:59:42;;;;;;;12.93;6.87;;;5.20;1.00;;;;;;5013060;28;20658;-76
2021/12/06 13:02:11;;;;;;;9.10;6.67;;;5.40;1.00;;;;;;5013536;28;20180;-75
2021/12/06 13:04:58;;;;;;;8.60;6.83;;;5.90;1.00;;;;;;5013508;28;20183;-76